Time;durP1;ratioP1;P1;durP2;ratioP2;P2;SDS_P1;SDS_P2;PMS_P1;PMS_P2;Temp;Humidity;BMP_temperature;BMP_pressure;BME280_temperature;BME280_humidity;BME280_pressure;Samples;Min_cycle;Max_cycle;Signal;HPM_P1;HPM_P2
2023/10/07 00:02:11;;;;;;;6.97;3.72;;;;;;;;;;6253388;27;20071;-72
2023/10/07 00:05:16;;;;;;;6.93;3.63;;;;;;;;;;6260803;27;20056;-72
2023/10/07 00:08:22;;;;;;;7.35;4.13;;;;;;;;;;6277712;27;20128;-72
2023/10/07 00:11:27;;;;;;;5.47;3.13;;;;;;;;;;6258080;27;20089;-72
2023/10/07 00:14:30;;;;;;;9.07;4.63;;;;;;;;;;6272290;27;20049;-72
2023/10/07 00:17:38;;;;;;;8.77;4.45;;;;;;;;;;6259617;27;20056;-72
2023/10/07 00:20:44;;;;;;;7.82;2.90;;;;;;;;;;6282161;27;20144;-72
2023/10/07 00:23:52;;;;;;;8.38;2.90;;;;;;;;;;6244378;27;20583;-72
2023/10/07 00:26:56;;;;;;;7.07;2.97;;;;;;;;;;6264377;27;20060;-73
2023/10/07 00:30:00;;;;;;;5.35;3.22;;;;;;;;;;6313382;27;20072;-72
2023/10/07 00:33:03;;;;;;;6.15;3.25;;;;;;;;;;6259571;27;20462;-72
2023/10/07 00:36:05;;;;;;;6.18;3.63;;;;;;;;;;6339338;27;20141;-72
2023/10/07 00:39:09;;;;;;;7.15;3.33;;;;;;;;;;6247069;28;20882;-73
2023/10/07 00:42:11;;;;;;;7.78;4.30;;;;;;;;;;6232658;27;20037;-73
2023/10/07 00:45:16;;;;;;;7.32;3.97;;;;;;;;;;6288623;27;20519;-73
2023/10/07 00:48:18;;;;;;;6.88;3.83;;;;;;;;;;6253635;27;20052;-72
2023/10/07 00:51:36;;;;;;;8.30;4.15;;;;;;;;;;6257986;27;20144;-72
2023/10/07 00:55:09;;;;;;;6.93;3.55;;;;;;;;;;6352660;27;20809;-74
2023/10/07 00:58:07;;;;;;;7.15;4.03;;;;;;;;;;6271775;27;20074;-74
2023/10/07 01:01:12;;;;;;;6.30;3.47;;;;;;;;;;6260826;27;20043;-73
2023/10/07 01:04:16;;;;;;;7.03;3.45;;;;;;;;;;6250306;28;20045;-72
2023/10/07 01:07:19;;;;;;;5.43;2.95;;;;;;;;;;6261625;27;20779;-74
2023/10/07 01:10:27;;;;;;;7.18;4.47;;;;;;;;;;6258797;27;20623;-72
2023/10/07 01:13:29;;;;;;;10.80;4.47;;;;;;;;;;6299080;27;20195;-72
2023/10/07 01:19:51;;;;;;;5.40;2.85;;;;;;;;;;6300180;27;20118;-72
2023/10/07 01:23:03;;;;;;;5.85;4.13;;;;;;;;;;6305255;27;20044;-73
2023/10/07 01:26:15;;;;;;;5.03;2.92;;;;;;;;;;6258653;27;20183;-73
2023/10/07 01:29:20;;;;;;;5.88;3.40;;;;;;;;;;6252904;27;20052;-72
2023/10/07 01:32:22;;;;;;;6.38;3.72;;;;;;;;;;6258558;27;20069;-72
2023/10/07 01:35:25;;;;;;;7.80;4.20;;;;;;;;;;6250997;27;20519;-72
2023/10/07 01:38:31;;;;;;;10.57;4.22;;;;;;;;;;6286621;27;20055;-72
2023/10/07 01:41:38;;;;;;;;;;;;;;;;;;6289422;27;20041;-72
2023/10/07 01:44:41;;;;;;;5.60;3.22;;;;;;;;;;6255747;27;20488;-72
2023/10/07 01:47:43;;;;;;;7.72;4.22;;;;;;;;;;6254774;27;20059;-72
2023/10/07 01:50:46;;;;;;;6.22;3.42;;;;;;;;;;6264042;27;20399;-73
2023/10/07 01:53:48;;;;;;;4.55;2.90;;;;;;;;;;6229016;28;20041;-72
2023/10/07 01:56:52;;;;;;;7.32;3.13;;;;;;;;;;6241912;27;20451;-73
2023/10/07 01:59:58;;;;;;;6.53;4.28;;;;;;;;;;6226269;27;20052;-73
2023/10/07 02:03:02;;;;;;;6.57;3.17;;;;;;;;;;6258544;27;20811;-73
2023/10/07 02:06:05;;;;;;;6.07;3.42;;;;;;;;;;6290493;27;20047;-73
2023/10/07 02:09:07;;;;;;;5.75;3.38;;;;;;;;;;6261300;28;20044;-73
2023/10/07 02:12:10;;;;;;;4.75;3.45;;;;;;;;;;6282699;27;20037;-72
2023/10/07 02:15:19;;;;;;;8.18;3.78;;;;;;;;;;6292120;27;20044;-72
2023/10/07 02:18:22;;;;;;;4.95;2.70;;;;;;;;;;6252265;28;20657;-72
2023/10/07 02:21:26;;;;;;;7.82;3.53;;;;;;;;;;6253609;27;20122;-72
2023/10/07 02:24:36;;;;;;;6.30;3.17;;;;;;;;;;6249970;27;20800;-73
2023/10/07 02:27:41;;;;;;;9.90;3.20;;;;;;;;;;6282901;27;20065;-73
2023/10/07 02:31:02;;;;;;;5.50;3.65;;;;;;;;;;6261307;27;20078;-73
2023/10/07 02:34:08;;;;;;;6.43;3.15;;;;;;;;;;6281702;27;20049;-72
2023/10/07 02:37:13;;;;;;;8.25;5.55;;;;;;;;;;6255978;27;20060;-72
2023/10/07 02:40:22;;;;;;;5.90;4.63;;;;;;;;;;6253844;27;20044;-72
2023/10/07 02:43:24;;;;;;;6.47;4.88;;;;;;;;;;6260567;27;20041;-73
2023/10/07 02:46:31;;;;;;;6.57;4.28;;;;;;;;;;6250966;27;20100;-72
2023/10/07 02:49:34;;;;;;;6.40;3.90;;;;;;;;;;6244207;28;20055;-72
2023/10/07 02:52:38;;;;;;;7.22;3.85;;;;;;;;;;6256817;27;20033;-73
2023/10/07 02:55:54;;;;;;;7.38;3.65;;;;;;;;;;6242862;27;20101;-73
2023/10/07 02:59:00;;;;;;;5.28;3.28;;;;;;;;;;6270180;27;20551;-73
2023/10/07 03:05:29;;;;;;;6.85;3.78;;;;;;;;;;6265653;27;20136;-71
2023/10/07 03:08:42;;;;;;;6.18;3.65;;;;;;;;;;6267603;27;20193;-71
2023/10/07 03:11:48;;;;;;;4.93;3.17;;;;;;;;;;6270134;27;20048;-71
2023/10/07 03:14:51;;;;;;;5.15;3.90;;;;;;;;;;6254604;27;20143;-71
2023/10/07 03:17:54;;;;;;;7.72;4.13;;;;;;;;;;6265149;27;20564;-72
2023/10/07 03:21:11;;;;;;;8.60;3.67;;;;;;;;;;6293753;27;20544;-71
2023/10/07 03:24:14;;;;;;;6.13;4.07;;;;;;;;;;6259342;27;20133;-72
2023/10/07 03:27:26;;;;;;;6.75;4.82;;;;;;;;;;6255804;27;20053;-73
2023/10/07 03:30:28;;;;;;;;;;;;;;;;;;6270182;27;20045;-73
2023/10/07 03:33:42;;;;;;;6.55;3.60;;;;;;;;;;6243366;27;19928;-73
2023/10/07 03:36:46;;;;;;;6.25;3.25;;;;;;;;;;6255649;27;20041;-73
2023/10/07 03:40:25;;;;;;;6.57;3.83;;;;;;;;;;6266200;27;20043;-73
2023/10/07 03:43:19;;;;;;;9.45;4.30;;;;;;;;;;6261391;27;20041;-67
2023/10/07 03:46:27;;;;;;;6.00;2.95;;;;;;;;;;6272228;27;20784;-67
2023/10/07 03:49:40;;;;;;;7.07;3.83;;;;;;;;;;6267292;27;20804;-67
2023/10/07 03:52:43;;;;;;;6.50;3.92;;;;;;;;;;6280131;27;20592;-67
2023/10/07 03:55:45;;;;;;;6.00;4.70;;;;;;;;;;6277403;27;20044;-67
2023/10/07 03:58:47;;;;;;;11.90;4.10;;;;;;;;;;6262359;27;20511;-67
2023/10/07 04:01:53;;;;;;;5.28;3.22;;;;;;;;;;6284996;27;20623;-66
2023/10/07 04:05:10;;;;;;;6.72;3.85;;;;;;;;;;6258286;27;20053;-68
2023/10/07 04:08:13;;;;;;;8.13;3.78;;;;;;;;;;6268957;27;20041;-67
2023/10/07 04:11:16;;;;;;;6.30;3.55;;;;;;;;;;6256858;27;20617;-67
2023/10/07 04:14:27;;;;;;;7.63;4.13;;;;;;;;;;6264856;27;20041;-67
2023/10/07 04:17:31;;;;;;;7.97;3.60;;;;;;;;;;6288519;27;20048;-70
2023/10/07 04:20:57;;;;;;;9.95;6.03;;;;;;;;;;6273034;27;20045;-67
2023/10/07 04:24:01;;;;;;;9.20;5.10;;;;;;;;;;6283195;27;20587;-67
2023/10/07 04:27:03;;;;;;;7.65;4.50;;;;;;;;;;6266166;27;20044;-67
2023/10/07 04:30:09;;;;;;;11.07;3.92;;;;;;;;;;6272936;27;20574;-68
2023/10/07 04:33:11;;;;;;;8.77;4.28;;;;;;;;;;6253013;27;20048;-67
2023/10/07 04:36:15;;;;;;;7.85;4.82;;;;;;;;;;6261533;27;20052;-67
2023/10/07 04:39:18;;;;;;;8.20;5.47;;;;;;;;;;6288384;27;20057;-66
2023/10/07 04:42:21;;;;;;;7.47;5.18;;;;;;;;;;6257539;27;20060;-67
2023/10/07 04:45:35;;;;;;;8.40;4.57;;;;;;;;;;6260508;27;20053;-68
2023/10/07 04:48:54;;;;;;;7.60;4.35;;;;;;;;;;6254430;27;20057;-67
2023/10/07 04:51:58;;;;;;;10.00;5.05;;;;;;;;;;6272846;27;20045;-61
2023/10/07 04:55:01;;;;;;;11.20;4.57;;;;;;;;;;6254557;27;20052;-73
2023/10/07 04:58:04;;;;;;;12.23;6.20;;;;;;;;;;6259191;27;20161;-70
2023/10/07 05:01:56;;;;;;;9.18;4.10;;;;;;;;;;6246278;27;20053;-72
2023/10/07 05:04:32;;;;;;;9.77;4.53;;;;;;;;;;6235034;27;20547;-62
2023/10/07 05:07:38;;;;;;;7.20;4.35;;;;;;;;;;6282409;27;20049;-62
2023/10/07 05:10:41;;;;;;;5.97;4.25;;;;;;;;;;6257240;27;20189;-62
2023/10/07 05:13:45;;;;;;;10.88;5.40;;;;;;;;;;6250988;27;20048;-65
2023/10/07 05:16:47;;;;;;;8.60;5.00;;;;;;;;;;6264285;27;20060;-62
2023/10/07 05:19:50;;;;;;;11.93;5.00;;;;;;;;;;6281884;27;20056;-62
2023/10/07 05:22:55;;;;;;;9.45;4.88;;;;;;;;;;6302352;27;20144;-62
2023/10/07 05:26:03;;;;;;;6.32;4.78;;;;;;;;;;6284354;27;20119;-63
2023/10/07 05:29:07;;;;;;;10.15;4.38;;;;;;;;;;6257855;27;20044;-62
2023/10/07 05:32:10;;;;;;;9.48;5.15;;;;;;;;;;6242649;27;20191;-63
2023/10/07 05:35:14;;;;;;;6.55;3.60;;;;;;;;;;6265879;27;20109;-62
2023/10/07 05:38:19;;;;;;;6.03;4.68;;;;;;;;;;6253120;27;20687;-62
2023/10/07 05:41:25;;;;;;;6.93;3.88;;;;;;;;;;6269562;27;20049;-62
2023/10/07 05:44:28;;;;;;;8.45;3.97;;;;;;;;;;6288513;27;20088;-62
2023/10/07 05:47:32;;;;;;;11.95;4.60;;;;;;;;;;6294889;27;20061;-63
2023/10/07 05:50:34;;;;;;;6.68;4.05;;;;;;;;;;6273697;27;20051;-63
2023/10/07 05:53:42;;;;;;;8.88;4.47;;;;;;;;;;6241753;27;20052;-63
2023/10/07 05:56:47;;;;;;;7.38;5.00;;;;;;;;;;6276189;27;20052;-63
2023/10/07 05:59:50;;;;;;;7.43;5.65;;;;;;;;;;6259315;27;20118;-63
2023/10/07 06:02:53;;;;;;;6.68;4.85;;;;;;;;;;6338048;27;20089;-63
2023/10/07 06:05:58;;;;;;;10.43;4.32;;;;;;;;;;6271886;27;20045;-63
2023/10/07 06:09:03;;;;;;;8.70;4.82;;;;;;;;;;6255926;27;20805;-63
2023/10/07 06:12:07;;;;;;;8.50;4.93;;;;;;;;;;6249211;27;20056;-64
2023/10/07 06:15:10;;;;;;;6.80;4.00;;;;;;;;;;6256411;27;20053;-71
2023/10/07 06:18:13;;;;;;;8.15;4.07;;;;;;;;;;6289281;27;20049;-69
2023/10/07 06:21:19;;;;;;;9.27;4.32;;;;;;;;;;6256545;27;20052;-67
2023/10/07 06:24:23;;;;;;;7.97;5.82;;;;;;;;;;6256641;27;20885;-66
2023/10/07 06:27:28;;;;;;;11.13;5.63;;;;;;;;;;6293263;27;20053;-67
2023/10/07 06:30:32;;;;;;;18.02;5.07;;;;;;;;;;6262155;27;20057;-66
2023/10/07 06:33:37;;;;;;;16.92;6.20;;;;;;;;;;6272495;27;20049;-64
2023/10/07 06:36:42;;;;;;;12.50;4.65;;;;;;;;;;6280460;27;20056;-65
2023/10/07 06:39:44;;;;;;;9.13;4.43;;;;;;;;;;6246872;27;20046;-64
2023/10/07 06:42:46;;;;;;;10.93;4.30;;;;;;;;;;6286516;27;20045;-64
2023/10/07 06:45:48;;;;;;;16.00;5.75;;;;;;;;;;6256711;27;20049;-64
2023/10/07 06:48:50;;;;;;;12.90;4.60;;;;;;;;;;6283703;27;20122;-64
2023/10/07 06:51:53;;;;;;;11.07;4.93;;;;;;;;;;6246853;27;20042;-64
2023/10/07 06:54:56;;;;;;;10.23;5.25;;;;;;;;;;6252655;27;20060;-64
2023/10/07 06:58:11;;;;;;;15.57;6.30;;;;;;;;;;6246597;27;20041;-65
2023/10/07 07:01:19;;;;;;;12.73;5.60;;;;;;;;;;6247923;27;20086;-63
2023/10/07 07:04:25;;;;;;;8.10;4.03;;;;;;;;;;6254776;27;20093;-63
2023/10/07 07:07:28;;;;;;;13.60;4.65;;;;;;;;;;6249754;27;20591;-64
2023/10/07 07:10:31;;;;;;;7.78;5.20;;;;;;;;;;6258028;27;20800;-62
2023/10/07 07:13:35;;;;;;;13.85;5.53;;;;;;;;;;6296842;27;20045;-63
2023/10/07 07:16:41;;;;;;;7.93;6.03;;;;;;;;;;6264805;27;20055;-72
2023/10/07 07:19:44;;;;;;;14.13;4.93;;;;;;;;;;6256771;27;20049;-71
2023/10/07 07:22:46;;;;;;;11.55;5.00;;;;;;;;;;6271055;27;20033;-72
2023/10/07 07:29:06;;;;;;;;;;;;;;;;;;6267650;27;20743;-63
2023/10/07 07:32:17;;;;;;;11.20;5.60;;;;;;;;;;6261992;27;20342;-62
2023/10/07 07:35:22;;;;;;;8.10;4.88;;;;;;;;;;6245348;27;20056;-62
2023/10/07 07:38:30;;;;;;;;;;;;;;;;;;6249634;27;20579;-62
2023/10/07 07:41:37;;;;;;;12.68;6.03;;;;;;;;;;6248054;27;19925;-62
2023/10/07 07:44:55;;;;;;;8.85;4.95;;;;;;;;;;6248500;27;20045;-71
2023/10/07 07:47:58;;;;;;;9.75;5.05;;;;;;;;;;6253555;27;20045;-68
2023/10/07 07:51:01;;;;;;;8.32;4.80;;;;;;;;;;6252067;27;20128;-63
2023/10/07 07:54:07;;;;;;;11.15;4.97;;;;;;;;;;6271081;27;20090;-63
2023/10/07 07:57:12;;;;;;;8.80;5.03;;;;;;;;;;6251144;27;20069;-68
2023/10/07 08:00:20;;;;;;;11.15;6.57;;;;;;;;;;6248227;27;20045;-74
2023/10/07 08:03:22;;;;;;;10.55;5.53;;;;;;;;;;6237066;27;20136;-70
2023/10/07 08:06:25;;;;;;;12.15;5.72;;;;;;;;;;6252354;27;20051;-71
2023/10/07 08:09:28;;;;;;;11.00;5.82;;;;;;;;;;6247716;27;20053;-67
2023/10/07 08:12:31;;;;;;;8.20;5.63;;;;;;;;;;6257491;27;20144;-65
2023/10/07 08:15:38;;;;;;;6.43;3.60;;;;;;;;;;6254215;27;20049;-64
2023/10/07 08:18:41;;;;;;;7.68;4.80;;;;;;;;;;6247641;27;20057;-65
2023/10/07 08:21:45;;;;;;;10.20;4.70;;;;;;;;;;6252980;27;20051;-66
2023/10/07 08:24:49;;;;;;;8.23;4.85;;;;;;;;;;6241247;27;20041;-73
2023/10/07 08:27:55;;;;;;;13.52;5.28;;;;;;;;;;6285855;27;20066;-73
2023/10/07 08:31:08;;;;;;;8.25;4.25;;;;;;;;;;6282999;27;20182;-73
2023/10/07 08:34:15;;;;;;;11.88;4.10;;;;;;;;;;6270192;27;20037;-73
2023/10/07 08:37:17;;;;;;;8.32;4.90;;;;;;;;;;6253495;27;20534;-73
2023/10/07 08:40:29;;;;;;;14.10;4.32;;;;;;;;;;6264185;27;20033;-73
2023/10/07 08:43:43;;;;;;;11.52;4.10;;;;;;;;;;6251945;27;20100;-73
2023/10/07 08:46:54;;;;;;;9.95;4.72;;;;;;;;;;6244756;27;20434;-73
2023/10/07 08:49:56;;;;;;;7.63;4.28;;;;;;;;;;6258494;27;20086;-73
2023/10/07 08:53:07;;;;;;;11.48;4.80;;;;;;;;;;6259534;27;20058;-73
2023/10/07 08:56:13;;;;;;;9.50;4.45;;;;;;;;;;6241095;28;20045;-73
2023/10/07 08:59:16;;;;;;;9.85;4.97;;;;;;;;;;6258398;27;20045;-73
2023/10/07 09:02:30;;;;;;;9.63;4.32;;;;;;;;;;6250173;27;20056;-74
2023/10/07 09:05:32;;;;;;;8.55;4.00;;;;;;;;;;6250921;27;20053;-73
2023/10/07 09:08:35;;;;;;;8.48;4.18;;;;;;;;;;6282605;27;20051;-73
2023/10/07 09:11:40;;;;;;;9.13;4.45;;;;;;;;;;6248003;27;20202;-73
2023/10/07 09:18:03;;;;;;;9.02;4.18;;;;;;;;;;6256547;27;20215;-73
2023/10/07 09:21:09;;;;;;;9.05;3.80;;;;;;;;;;6262259;27;20813;-73
2023/10/07 09:24:23;;;;;;;7.45;4.13;;;;;;;;;;6238057;28;20064;-73
2023/10/07 09:27:37;;;;;;;6.20;2.97;;;;;;;;;;6272828;27;20802;-73
2023/10/07 09:33:48;;;;;;;8.88;4.75;;;;;;;;;;6249159;27;20115;-74
2023/10/07 09:36:53;;;;;;;7.60;4.55;;;;;;;;;;6250525;27;20041;-73
2023/10/07 09:40:18;;;;;;;7.95;4.03;;;;;;;;;;6243695;27;20057;-73
2023/10/07 09:43:25;;;;;;;9.07;4.60;;;;;;;;;;6254461;27;20048;-73
2023/10/07 09:46:27;;;;;;;6.28;3.67;;;;;;;;;;6249697;27;20037;-73
2023/10/07 09:49:32;;;;;;;6.93;4.63;;;;;;;;;;6258102;27;20049;-73
2023/10/07 09:52:35;;;;;;;8.32;3.83;;;;;;;;;;6264000;27;20054;-73
2023/10/07 09:56:21;;;;;;;9.70;3.70;;;;;;;;;;6255810;27;20540;-72
2023/10/07 10:00:17;;;;;;;9.25;3.50;;;;;;;;;;6249994;27;20036;-72
2023/10/07 10:03:42;;;;;;;7.35;3.92;;;;;;;;;;6243792;27;20068;-73
2023/10/07 10:07:25;;;;;;;10.02;3.92;;;;;;;;;;6253421;27;20081;-71
2023/10/07 10:10:31;;;;;;;5.88;2.55;;;;;;;;;;6247802;27;20524;-71
2023/10/07 10:16:44;;;;;;;7.45;3.90;;;;;;;;;;6245086;27;20712;-71
2023/10/07 10:19:49;;;;;;;8.77;3.63;;;;;;;;;;6254500;27;20426;-71
2023/10/07 10:22:53;;;;;;;7.88;3.20;;;;;;;;;;6249451;27;20037;-71
2023/10/07 10:25:55;;;;;;;9.45;2.88;;;;;;;;;;6248212;27;20041;-71
2023/10/07 10:29:04;;;;;;;6.90;2.95;;;;;;;;;;6254337;27;20049;-71
2023/10/07 10:32:16;;;;;;;11.00;3.65;;;;;;;;;;6248969;27;20056;-72
2023/10/07 10:35:23;;;;;;;9.15;3.40;;;;;;;;;;6253693;27;20140;-71
2023/10/07 10:38:45;;;;;;;6.78;2.38;;;;;;;;;;6241959;27;20156;-72
2023/10/07 10:41:48;;;;;;;17.15;3.10;;;;;;;;;;6250831;27;20056;-72
2023/10/07 10:44:53;;;;;;;9.30;3.78;;;;;;;;;;6264294;27;20041;-72
2023/10/07 10:48:00;;;;;;;8.23;2.80;;;;;;;;;;6265499;27;20048;-70
2023/10/07 10:51:05;;;;;;;11.63;3.08;;;;;;;;;;6273363;27;20044;-70
2023/10/07 10:54:07;;;;;;;15.32;3.25;;;;;;;;;;6254555;27;20049;-70
2023/10/07 10:57:14;;;;;;;11.23;2.50;;;;;;;;;;6246221;27;20058;-70
2023/10/07 11:00:21;;;;;;;6.65;2.53;;;;;;;;;;6278224;27;20044;-70
2023/10/07 11:03:24;;;;;;;7.53;3.05;;;;;;;;;;6259183;27;20459;-70
2023/10/07 11:06:28;;;;;;;7.72;2.97;;;;;;;;;;6279624;27;20076;-70
2023/10/07 11:09:36;;;;;;;9.30;3.58;;;;;;;;;;6250230;27;20056;-69
2023/10/07 11:12:40;;;;;;;6.13;3.17;;;;;;;;;;6255253;27;20056;-70
2023/10/07 11:16:09;;;;;;;8.48;3.33;;;;;;;;;;6259979;27;20120;-70
2023/10/07 11:19:15;;;;;;;6.28;3.65;;;;;;;;;;6255851;27;20041;-69
2023/10/07 11:22:21;;;;;;;10.40;3.38;;;;;;;;;;6263142;27;20105;-70
2023/10/07 11:25:24;;;;;;;9.75;4.57;;;;;;;;;;6257315;27;20052;-71
2023/10/07 11:28:32;;;;;;;13.38;4.18;;;;;;;;;;6254622;27;20620;-70
2023/10/07 11:31:37;;;;;;;7.63;3.08;;;;;;;;;;6258843;27;20053;-70
2023/10/07 11:34:42;;;;;;;7.60;2.80;;;;;;;;;;6302355;27;20549;-73
2023/10/07 11:37:58;;;;;;;6.43;2.70;;;;;;;;;;6262982;27;20136;-74
2023/10/07 11:41:00;;;;;;;6.78;3.45;;;;;;;;;;6258611;27;20068;-74
2023/10/07 11:44:03;;;;;;;6.05;2.60;;;;;;;;;;6258904;27;20178;-65
2023/10/07 11:47:07;;;;;;;10.73;2.42;;;;;;;;;;6254867;27;20542;-72
2023/10/07 11:50:09;;;;;;;5.43;2.90;;;;;;;;;;6264925;27;20056;-72
2023/10/07 11:53:11;;;;;;;7.63;2.50;;;;;;;;;;6268009;27;20043;-72
2023/10/07 11:56:14;;;;;;;11.27;3.30;;;;;;;;;;6244641;27;20882;-72
2023/10/07 11:59:19;;;;;;;9.55;3.05;;;;;;;;;;6246435;27;20128;-72
2023/10/07 12:02:22;;;;;;;7.70;3.00;;;;;;;;;;6253942;27;20060;-72
2023/10/07 12:05:28;;;;;;;6.07;2.70;;;;;;;;;;6265717;27;20106;-71
2023/10/07 12:08:34;;;;;;;7.40;3.00;;;;;;;;;;6255751;27;20045;-71
2023/10/07 12:11:37;;;;;;;9.65;2.67;;;;;;;;;;6249071;27;20038;-71
2023/10/07 12:14:39;;;;;;;5.82;2.63;;;;;;;;;;6248207;27;20045;-71
2023/10/07 12:17:44;;;;;;;7.18;2.22;;;;;;;;;;6264926;27;20053;-70
2023/10/07 12:20:47;;;;;;;5.90;2.85;;;;;;;;;;6257265;27;20052;-70
2023/10/07 12:23:49;;;;;;;5.45;1.92;;;;;;;;;;6269147;27;20049;-70
2023/10/07 12:26:52;;;;;;;4.60;1.85;;;;;;;;;;6249407;27;20049;-70
2023/10/07 12:29:54;;;;;;;4.85;1.90;;;;;;;;;;6257788;27;20056;-70
2023/10/07 12:32:58;;;;;;;4.43;2.35;;;;;;;;;;6263833;27;20736;-70
2023/10/07 12:36:00;;;;;;;4.72;1.40;;;;;;;;;;6260114;27;20053;-70
2023/10/07 12:39:09;;;;;;;5.53;1.77;;;;;;;;;;6256517;27;20056;-70
2023/10/07 12:42:12;;;;;;;5.07;2.42;;;;;;;;;;6262272;27;20151;-65
2023/10/07 12:45:14;;;;;;;5.90;1.52;;;;;;;;;;6258055;27;20045;-64
2023/10/07 12:48:18;;;;;;;5.03;1.30;;;;;;;;;;6274501;27;20041;-63
2023/10/07 12:51:20;;;;;;;3.72;1.63;;;;;;;;;;6260002;27;20128;-71
2023/10/07 12:54:23;;;;;;;4.40;1.65;;;;;;;;;;6253879;27;20155;-68
2023/10/07 12:57:28;;;;;;;5.80;1.70;;;;;;;;;;6266558;27;20045;-72
2023/10/07 13:00:32;;;;;;;6.10;2.25;;;;;;;;;;6237941;27;20149;-72
2023/10/07 13:03:39;;;;;;;4.53;1.80;;;;;;;;;;6258061;27;20049;-71
2023/10/07 13:06:44;;;;;;;5.38;2.40;;;;;;;;;;6272417;27;20041;-63
2023/10/07 13:09:46;;;;;;;;;;;;;;;;;;6258294;27;20439;-69
2023/10/07 13:12:49;;;;;;;10.50;2.17;;;;;;;;;;6287748;27;19924;-71
2023/10/07 13:15:52;;;;;;;6.45;2.47;;;;;;;;;;6255371;27;20056;-70
2023/10/07 13:18:54;;;;;;;5.68;1.90;;;;;;;;;;6269743;27;20060;-70
2023/10/07 13:22:01;;;;;;;7.65;2.05;;;;;;;;;;6260219;27;20056;-72
2023/10/07 13:25:04;;;;;;;8.77;2.05;;;;;;;;;;6247040;27;20045;-72
2023/10/07 13:28:06;;;;;;;4.93;1.95;;;;;;;;;;6252837;27;20045;-71
2023/10/07 13:31:10;;;;;;;6.40;1.65;;;;;;;;;;6246898;27;20131;-72
2023/10/07 13:34:15;;;;;;;7.20;2.60;;;;;;;;;;6283198;27;20046;-71
2023/10/07 13:37:17;;;;;;;3.50;1.63;;;;;;;;;;6250150;27;20053;-71
2023/10/07 13:40:20;;;;;;;5.75;2.05;;;;;;;;;;6280252;27;20124;-71
2023/10/07 13:43:22;;;;;;;4.75;1.70;;;;;;;;;;6242780;27;20169;-71
2023/10/07 13:46:26;;;;;;;8.90;3.20;;;;;;;;;;6256065;27;20499;-71
2023/10/07 13:49:28;;;;;;;5.75;1.83;;;;;;;;;;6248785;27;20060;-72
2023/10/07 13:52:40;;;;;;;8.25;2.63;;;;;;;;;;6279763;27;20615;-72
2023/10/07 13:58:45;;;;;;;6.63;1.73;;;;;;;;;;6249298;27;20053;-71
2023/10/07 14:01:51;;;;;;;4.80;1.90;;;;;;;;;;6247283;27;20044;-72
2023/10/07 14:04:57;;;;;;;4.55;1.80;;;;;;;;;;6255725;27;20037;-72
2023/10/07 14:08:01;;;;;;;3.95;1.48;;;;;;;;;;6305435;27;20450;-70
2023/10/07 14:11:06;;;;;;;6.90;1.92;;;;;;;;;;6253916;27;20053;-71
2023/10/07 14:14:09;;;;;;;6.28;2.05;;;;;;;;;;6257542;27;20128;-71
2023/10/07 14:17:14;;;;;;;6.88;2.20;;;;;;;;;;6257268;27;20716;-71
2023/10/07 14:20:16;;;;;;;6.13;2.20;;;;;;;;;;6240448;27;20041;-72
2023/10/07 14:23:22;;;;;;;9.93;1.50;;;;;;;;;;6252823;27;20042;-71
2023/10/07 14:26:32;;;;;;;7.07;2.25;;;;;;;;;;6299499;27;20053;-72
2023/10/07 14:29:35;;;;;;;;;;;;;;;;;;6271885;27;20101;-72
2023/10/07 14:32:38;;;;;;;5.38;2.10;;;;;;;;;;6269816;27;20038;-71
2023/10/07 14:35:40;;;;;;;9.65;2.00;;;;;;;;;;6257763;27;20048;-71
2023/10/07 14:38:42;;;;;;;4.28;1.75;;;;;;;;;;6257298;27;20087;-71
2023/10/07 14:41:44;;;;;;;5.47;2.05;;;;;;;;;;6260413;27;20181;-71
2023/10/07 14:44:47;;;;;;;5.60;1.77;;;;;;;;;;6259458;27;20055;-71
2023/10/07 14:47:49;;;;;;;5.78;2.35;;;;;;;;;;6256362;27;20121;-72
2023/10/07 14:50:56;;;;;;;7.35;2.72;;;;;;;;;;6314865;27;20041;-71
2023/10/07 14:53:59;;;;;;;5.07;2.47;;;;;;;;;;6256679;27;20061;-72
2023/10/07 14:57:03;;;;;;;8.32;1.92;;;;;;;;;;6273464;27;20056;-72
2023/10/07 15:00:10;;;;;;;8.30;2.85;;;;;;;;;;6255664;27;20551;-71
2023/10/07 15:03:16;;;;;;;6.10;2.40;;;;;;;;;;6272650;27;20052;-71
2023/10/07 15:06:21;;;;;;;9.00;2.67;;;;;;;;;;6304259;27;20034;-71
2023/10/07 15:09:23;;;;;;;6.97;2.28;;;;;;;;;;6284543;27;20097;-71
2023/10/07 15:12:25;;;;;;;4.60;1.73;;;;;;;;;;6320307;27;20075;-71
2023/10/07 15:15:28;;;;;;;5.40;2.65;;;;;;;;;;6256197;27;20447;-70
2023/10/07 15:18:30;;;;;;;6.78;2.92;;;;;;;;;;6316730;27;20060;-71
2023/10/07 15:21:32;;;;;;;7.63;2.50;;;;;;;;;;6302031;27;20054;-71
2023/10/07 15:24:36;;;;;;;7.10;2.45;;;;;;;;;;6264957;27;20066;-72
2023/10/07 15:27:39;;;;;;;;;;;;;;;;;;6259608;27;20130;-71
2023/10/07 15:30:49;;;;;;;9.65;3.15;;;;;;;;;;6267917;27;19925;-72
2023/10/07 15:33:56;;;;;;;11.60;2.55;;;;;;;;;;6253298;27;20052;-71
2023/10/07 15:36:59;;;;;;;7.95;2.20;;;;;;;;;;6251106;27;20052;-71
2023/10/07 15:40:01;;;;;;;6.43;2.17;;;;;;;;;;6248109;27;20045;-71
2023/10/07 15:43:03;;;;;;;6.95;2.40;;;;;;;;;;6252329;27;20086;-64
2023/10/07 15:46:07;;;;;;;7.18;2.33;;;;;;;;;;6260156;27;20061;-63
2023/10/07 15:49:13;;;;;;;5.65;2.03;;;;;;;;;;6248783;27;20068;-73
2023/10/07 15:52:16;;;;;;;8.65;2.58;;;;;;;;;;6253337;27;20057;-72
2023/10/07 15:55:19;;;;;;;5.78;2.38;;;;;;;;;;6281217;27;20045;-73
2023/10/07 15:58:21;;;;;;;9.05;2.60;;;;;;;;;;6257069;27;20045;-73
2023/10/07 16:01:25;;;;;;;6.90;2.85;;;;;;;;;;6251826;28;20896;-73
2023/10/07 16:04:27;;;;;;;5.82;2.15;;;;;;;;;;6259350;27;20041;-73
2023/10/07 16:07:29;;;;;;;7.07;2.42;;;;;;;;;;6259916;27;20045;-72
2023/10/07 16:10:36;;;;;;;7.38;2.10;;;;;;;;;;6251110;27;20045;-72
2023/10/07 16:13:39;;;;;;;6.10;2.35;;;;;;;;;;6279806;27;20052;-72
2023/10/07 16:16:41;;;;;;;6.05;2.10;;;;;;;;;;6260488;27;20052;-74
2023/10/07 16:19:44;;;;;;;9.45;2.65;;;;;;;;;;6244720;27;20052;-72
2023/10/07 16:22:46;;;;;;;7.90;3.40;;;;;;;;;;6241200;27;20040;-72
2023/10/07 16:25:48;;;;;;;5.97;2.65;;;;;;;;;;6250006;27;20096;-72
2023/10/07 16:28:50;;;;;;;7.82;3.20;;;;;;;;;;6256747;27;20692;-72
2023/10/07 16:31:53;;;;;;;6.10;3.08;;;;;;;;;;6290190;27;20060;-72
2023/10/07 16:34:55;;;;;;;20.52;10.00;;;;;;;;;;6257397;27;20062;-72
2023/10/07 16:37:57;;;;;;;24.27;12.43;;;;;;;;;;6242474;28;20118;-73
2023/10/07 16:41:03;;;;;;;10.05;4.47;;;;;;;;;;6254270;27;20048;-72
2023/10/07 16:44:05;;;;;;;8.35;4.13;;;;;;;;;;6256008;28;20048;-74
2023/10/07 16:47:07;;;;;;;8.20;3.58;;;;;;;;;;6245585;27;20101;-72
2023/10/07 16:50:09;;;;;;;9.90;2.85;;;;;;;;;;6255551;27;20044;-72
2023/10/07 16:53:13;;;;;;;6.30;2.72;;;;;;;;;;6255363;28;20540;-72
2023/10/07 16:56:16;;;;;;;6.93;2.55;;;;;;;;;;6263975;27;20037;-72
2023/10/07 16:59:18;;;;;;;4.70;2.72;;;;;;;;;;6259406;27;20045;-72
2023/10/07 17:02:21;;;;;;;7.28;2.58;;;;;;;;;;6266735;27;20057;-72
2023/10/07 17:05:23;;;;;;;6.28;2.97;;;;;;;;;;6258377;27;20044;-72
2023/10/07 17:08:27;;;;;;;4.93;1.80;;;;;;;;;;6247972;27;20045;-72
2023/10/07 17:11:29;;;;;;;5.78;3.17;;;;;;;;;;6268790;27;20088;-72
2023/10/07 17:14:32;;;;;;;8.13;2.88;;;;;;;;;;6251394;27;20554;-70
2023/10/07 17:17:34;;;;;;;8.07;3.00;;;;;;;;;;6247576;27;20627;-65
2023/10/07 17:20:41;;;;;;;6.70;3.17;;;;;;;;;;6250116;27;20057;-64
2023/10/07 17:23:43;;;;;;;5.72;2.55;;;;;;;;;;6251579;27;20045;-66
2023/10/07 17:26:45;;;;;;;11.50;4.85;;;;;;;;;;6254071;27;20041;-70
2023/10/07 17:29:47;;;;;;;7.00;3.92;;;;;;;;;;6272565;27;20054;-67
2023/10/07 17:32:49;;;;;;;9.95;4.32;;;;;;;;;;6266202;27;20076;-68
2023/10/07 17:35:52;;;;;;;10.23;3.78;;;;;;;;;;6283235;27;20597;-71
2023/10/07 17:38:54;;;;;;;7.95;4.00;;;;;;;;;;6310256;27;20042;-68
2023/10/07 17:41:56;;;;;;;8.43;3.70;;;;;;;;;;6283798;27;20516;-70
2023/10/07 17:44:58;;;;;;;9.18;4.47;;;;;;;;;;6253281;27;20115;-72
2023/10/07 17:48:02;;;;;;;11.15;5.63;;;;;;;;;;6245351;27;20051;-70
2023/10/07 17:51:05;;;;;;;10.68;4.95;;;;;;;;;;6245397;27;20056;-71
2023/10/07 17:54:09;;;;;;;12.02;3.60;;;;;;;;;;6247314;27;20184;-70
2023/10/07 17:57:11;;;;;;;5.55;3.17;;;;;;;;;;6253695;27;20090;-71
2023/10/07 18:00:14;;;;;;;11.95;6.97;;;;;;;;;;6289082;27;20056;-71
2023/10/07 18:03:16;;;;;;;7.28;3.47;;;;;;;;;;6256928;27;20825;-71
2023/10/07 18:06:19;;;;;;;8.95;3.63;;;;;;;;;;6277065;27;20041;-71
2023/10/07 18:09:21;;;;;;;8.57;2.97;;;;;;;;;;6252187;27;20186;-70
2023/10/07 18:12:25;;;;;;;12.00;4.28;;;;;;;;;;6248528;27;20563;-69
2023/10/07 18:15:27;;;;;;;10.05;3.63;;;;;;;;;;6279370;27;20046;-66
2023/10/07 18:18:31;;;;;;;8.85;4.63;;;;;;;;;;6308715;27;20054;-69
2023/10/07 18:21:33;;;;;;;10.65;3.83;;;;;;;;;;6288853;27;20104;-69
2023/10/07 18:24:36;;;;;;;9.77;4.75;;;;;;;;;;6271680;27;20054;-68
2023/10/07 18:27:37;;;;;;;12.15;4.03;;;;;;;;;;6276312;27;20104;-68
2023/10/07 18:30:44;;;;;;;12.50;4.72;;;;;;;;;;6272720;27;20053;-66
2023/10/07 18:33:46;;;;;;;8.75;5.32;;;;;;;;;;6255186;27;20063;-66
2023/10/07 18:36:49;;;;;;;10.98;4.15;;;;;;;;;;6251480;27;20554;-65
2023/10/07 18:39:51;;;;;;;11.13;3.90;;;;;;;;;;6289903;27;20055;-65
2023/10/07 18:42:53;;;;;;;14.38;3.88;;;;;;;;;;6255915;27;20096;-65
2023/10/07 18:45:55;;;;;;;9.15;4.97;;;;;;;;;;6252326;27;20076;-64
2023/10/07 18:48:59;;;;;;;7.70;3.97;;;;;;;;;;6255239;27;20056;-65
2023/10/07 18:52:01;;;;;;;10.85;4.53;;;;;;;;;;6266503;27;20512;-65
2023/10/07 18:55:04;;;;;;;9.55;4.68;;;;;;;;;;6253713;27;20427;-67